sensor_id;sensor_type;location;lat;lon;timestamp;P1;durP1;ratioP1;P2;durP2;ratioP2
74259;SDS011;62630;55.874;37.516;2023-03-23T00:01:12;2.90;;;1.73;;
74259;SDS011;62630;55.874;37.516;2023-03-23T00:03:40;4.03;;;1.88;;
74259;SDS011;62630;55.874;37.516;2023-03-23T00:06:06;4.88;;;1.58;;
74259;SDS011;62630;55.874;37.516;2023-03-23T00:08:33;2.55;;;1.77;;
74259;SDS011;62630;55.874;37.516;2023-03-23T00:11:03;2.97;;;1.58;;
74259;SDS011;62630;55.874;37.516;2023-03-23T00:13:32;4.35;;;1.67;;
74259;SDS011;62630;55.874;37.516;2023-03-23T00:15:58;3.83;;;1.85;;
74259;SDS011;62630;55.874;37.516;2023-03-23T00:18:24;2.70;;;1.65;;
74259;SDS011;62630;55.874;37.516;2023-03-23T00:20:51;7.00;;;2.65;;
74259;SDS011;62630;55.874;37.516;2023-03-23T00:23:18;2.97;;;1.80;;
74259;SDS011;62630;55.874;37.516;2023-03-23T00:25:47;4.95;;;1.65;;
74259;SDS011;62630;55.874;37.516;2023-03-23T00:28:14;7.78;;;1.77;;
74259;SDS011;62630;55.874;37.516;2023-03-23T00:30:41;3.10;;;1.65;;
74259;SDS011;62630;55.874;37.516;2023-03-23T00:33:07;3.28;;;1.70;;
74259;SDS011;62630;55.874;37.516;2023-03-23T00:35:37;3.58;;;1.65;;
74259;SDS011;62630;55.874;37.516;2023-03-23T00:38:05;5.22;;;1.88;;
74259;SDS011;62630;55.874;37.516;2023-03-23T00:40:31;2.95;;;1.50;;
74259;SDS011;62630;55.874;37.516;2023-03-23T00:43:00;3.17;;;1.80;;
74259;SDS011;62630;55.874;37.516;2023-03-23T00:45:28;5.47;;;1.65;;
74259;SDS011;62630;55.874;37.516;2023-03-23T00:47:54;3.53;;;1.42;;
74259;SDS011;62630;55.874;37.516;2023-03-23T00:50:26;3.10;;;1.85;;
74259;SDS011;62630;55.874;37.516;2023-03-23T00:52:52;3.60;;;1.90;;
74259;SDS011;62630;55.874;37.516;2023-03-23T00:55:20;3.40;;;1.75;;
74259;SDS011;62630;55.874;37.516;2023-03-23T00:57:45;3.42;;;1.70;;
74259;SDS011;62630;55.874;37.516;2023-03-23T01:00:13;3.15;;;1.90;;
74259;SDS011;62630;55.874;37.516;2023-03-23T01:02:39;2.88;;;1.73;;
74259;SDS011;62630;55.874;37.516;2023-03-23T01:05:05;4.18;;;1.73;;
74259;SDS011;62630;55.874;37.516;2023-03-23T01:07:31;2.88;;;1.75;;
74259;SDS011;62630;55.874;37.516;2023-03-23T01:09:56;2.55;;;1.27;;
74259;SDS011;62630;55.874;37.516;2023-03-23T01:12:22;2.50;;;1.50;;
74259;SDS011;62630;55.874;37.516;2023-03-23T01:14:50;2.22;;;1.45;;
74259;SDS011;62630;55.874;37.516;2023-03-23T01:17:16;3.28;;;1.70;;
74259;SDS011;62630;55.874;37.516;2023-03-23T01:19:41;3.10;;;1.80;;
74259;SDS011;62630;55.874;37.516;2023-03-23T01:22:07;3.08;;;1.60;;
74259;SDS011;62630;55.874;37.516;2023-03-23T01:24:33;3.03;;;1.67;;
74259;SDS011;62630;55.874;37.516;2023-03-23T01:26:58;2.38;;;1.70;;
74259;SDS011;62630;55.874;37.516;2023-03-23T01:29:31;2.63;;;1.65;;
74259;SDS011;62630;55.874;37.516;2023-03-23T01:31:57;3.38;;;1.55;;
74259;SDS011;62630;55.874;37.516;2023-03-23T01:34:23;2.05;;;1.50;;
74259;SDS011;62630;55.874;37.516;2023-03-23T01:36:49;1.80;;;1.40;;
74259;SDS011;62630;55.874;37.516;2023-03-23T01:39:15;1.80;;;1.58;;
74259;SDS011;62630;55.874;37.516;2023-03-23T01:41:40;3.55;;;1.92;;
74259;SDS011;62630;55.874;37.516;2023-03-23T01:44:07;2.47;;;1.80;;
74259;SDS011;62630;55.874;37.516;2023-03-23T01:46:53;1.95;;;1.33;;
74259;SDS011;62630;55.874;37.516;2023-03-23T01:49:29;3.45;;;1.65;;
74259;SDS011;62630;55.874;37.516;2023-03-23T01:52:02;3.67;;;1.75;;
74259;SDS011;62630;55.874;37.516;2023-03-23T01:54:33;2.67;;;1.52;;
74259;SDS011;62630;55.874;37.516;2023-03-23T01:57:07;2.45;;;1.48;;
74259;SDS011;62630;55.874;37.516;2023-03-23T01:59:38;2.65;;;1.60;;
74259;SDS011;62630;55.874;37.516;2023-03-23T02:02:08;2.85;;;1.73;;
74259;SDS011;62630;55.874;37.516;2023-03-23T02:04:36;3.85;;;1.67;;
74259;SDS011;62630;55.874;37.516;2023-03-23T02:07:02;3.30;;;1.70;;
74259;SDS011;62630;55.874;37.516;2023-03-23T02:09:29;2.10;;;1.40;;
74259;SDS011;62630;55.874;37.516;2023-03-23T02:11:55;2.90;;;1.63;;
74259;SDS011;62630;55.874;37.516;2023-03-23T02:14:21;5.22;;;1.77;;
74259;SDS011;62630;55.874;37.516;2023-03-23T02:22:22;3.13;;;1.70;;
74259;SDS011;62630;55.874;37.516;2023-03-23T02:36:19;4.05;;;2.20;;
74259;SDS011;62630;55.874;37.516;2023-03-23T02:38:52;5.40;;;2.00;;
74259;SDS011;62630;55.874;37.516;2023-03-23T02:41:41;2.80;;;1.70;;
74259;SDS011;62630;55.874;37.516;2023-03-23T02:44:10;3.53;;;2.05;;
74259;SDS011;62630;55.874;37.516;2023-03-23T02:46:38;3.75;;;1.77;;
74259;SDS011;62630;55.874;37.516;2023-03-23T02:49:05;2.95;;;1.67;;
74259;SDS011;62630;55.874;37.516;2023-03-23T02:51:34;3.50;;;2.10;;
74259;SDS011;62630;55.874;37.516;2023-03-23T02:54:00;3.38;;;1.77;;
74259;SDS011;62630;55.874;37.516;2023-03-23T03:03:53;3.60;;;1.50;;
74259;SDS011;62630;55.874;37.516;2023-03-23T03:06:25;3.17;;;1.80;;
74259;SDS011;62630;55.874;37.516;2023-03-23T03:11:28;4.63;;;2.45;;
74259;SDS011;62630;55.874;37.516;2023-03-23T03:14:07;4.28;;;1.98;;
74259;SDS011;62630;55.874;37.516;2023-03-23T03:21:54;4.72;;;2.40;;
74259;SDS011;62630;55.874;37.516;2023-03-23T03:24:26;3.63;;;2.00;;
74259;SDS011;62630;55.874;37.516;2023-03-23T03:26:54;5.57;;;1.85;;
74259;SDS011;62630;55.874;37.516;2023-03-23T03:29:35;2.72;;;1.70;;
74259;SDS011;62630;55.874;37.516;2023-03-23T03:32:06;3.30;;;2.13;;
74259;SDS011;62630;55.874;37.516;2023-03-23T03:34:36;6.03;;;1.90;;
74259;SDS011;62630;55.874;37.516;2023-03-23T03:37:05;4.75;;;2.13;;
74259;SDS011;62630;55.874;37.516;2023-03-23T03:39:33;3.38;;;1.92;;
74259;SDS011;62630;55.874;37.516;2023-03-23T03:42:00;2.85;;;1.77;;
74259;SDS011;62630;55.874;37.516;2023-03-23T03:44:35;3.35;;;2.00;;
74259;SDS011;62630;55.874;37.516;2023-03-23T03:47:01;4.18;;;2.00;;
74259;SDS011;62630;55.874;37.516;2023-03-23T03:49:29;4.75;;;2.25;;
74259;SDS011;62630;55.874;37.516;2023-03-23T03:52:01;3.05;;;2.10;;
74259;SDS011;62630;55.874;37.516;2023-03-23T03:54:27;5.15;;;2.10;;
74259;SDS011;62630;55.874;37.516;2023-03-23T03:56:53;5.05;;;2.20;;
74259;SDS011;62630;55.874;37.516;2023-03-23T03:59:23;5.05;;;2.42;;
74259;SDS011;62630;55.874;37.516;2023-03-23T04:01:51;5.15;;;2.63;;
74259;SDS011;62630;55.874;37.516;2023-03-23T04:04:19;3.70;;;1.98;;
74259;SDS011;62630;55.874;37.516;2023-03-23T04:06:45;4.45;;;2.53;;
74259;SDS011;62630;55.874;37.516;2023-03-23T04:09:14;4.13;;;2.53;;
74259;SDS011;62630;55.874;37.516;2023-03-23T04:11:41;4.10;;;2.40;;
74259;SDS011;62630;55.874;37.516;2023-03-23T04:14:06;4.32;;;2.42;;
74259;SDS011;62630;55.874;37.516;2023-03-23T04:16:32;4.10;;;2.65;;
74259;SDS011;62630;55.874;37.516;2023-03-23T04:19:01;4.20;;;2.50;;
74259;SDS011;62630;55.874;37.516;2023-03-23T04:21:27;4.10;;;2.50;;
74259;SDS011;62630;55.874;37.516;2023-03-23T04:23:54;3.30;;;2.08;;
74259;SDS011;62630;55.874;37.516;2023-03-23T04:26:24;4.03;;;2.17;;
74259;SDS011;62630;55.874;37.516;2023-03-23T04:28:57;5.30;;;2.78;;
74259;SDS011;62630;55.874;37.516;2023-03-23T04:31:23;4.45;;;2.63;;
74259;SDS011;62630;55.874;37.516;2023-03-23T04:33:50;5.20;;;2.20;;
74259;SDS011;62630;55.874;37.516;2023-03-23T04:36:18;6.93;;;2.70;;
74259;SDS011;62630;55.874;37.516;2023-03-23T04:38:45;3.97;;;2.45;;
74259;SDS011;62630;55.874;37.516;2023-03-23T04:41:10;3.85;;;2.30;;
74259;SDS011;62630;55.874;37.516;2023-03-23T04:43:36;4.03;;;2.40;;
74259;SDS011;62630;55.874;37.516;2023-03-23T04:46:06;5.07;;;3.00;;
74259;SDS011;62630;55.874;37.516;2023-03-23T04:48:35;7.07;;;2.92;;
74259;SDS011;62630;55.874;37.516;2023-03-23T04:51:04;4.90;;;2.78;;
74259;SDS011;62630;55.874;37.516;2023-03-23T04:53:31;3.90;;;2.50;;
74259;SDS011;62630;55.874;37.516;2023-03-23T04:55:57;3.40;;;2.78;;
74259;SDS011;62630;55.874;37.516;2023-03-23T04:58:23;5.15;;;2.80;;
74259;SDS011;62630;55.874;37.516;2023-03-23T05:00:51;4.70;;;2.97;;
74259;SDS011;62630;55.874;37.516;2023-03-23T05:03:17;5.85;;;3.03;;
74259;SDS011;62630;55.874;37.516;2023-03-23T05:05:43;6.18;;;3.03;;
74259;SDS011;62630;55.874;37.516;2023-03-23T05:08:12;6.15;;;2.75;;
74259;SDS011;62630;55.874;37.516;2023-03-23T05:10:39;4.68;;;2.80;;
74259;SDS011;62630;55.874;37.516;2023-03-23T05:13:04;12.82;;;4.00;;
74259;SDS011;62630;55.874;37.516;2023-03-23T05:15:30;6.97;;;3.30;;
74259;SDS011;62630;55.874;37.516;2023-03-23T05:17:55;6.75;;;3.75;;
74259;SDS011;62630;55.874;37.516;2023-03-23T05:20:21;6.70;;;3.63;;
74259;SDS011;62630;55.874;37.516;2023-03-23T05:22:48;9.45;;;3.95;;
74259;SDS011;62630;55.874;37.516;2023-03-23T05:25:14;4.20;;;3.10;;
74259;SDS011;62630;55.874;37.516;2023-03-23T05:27:46;6.72;;;3.40;;
74259;SDS011;62630;55.874;37.516;2023-03-23T05:30:17;7.88;;;4.38;;
74259;SDS011;62630;55.874;37.516;2023-03-23T05:32:44;6.35;;;3.35;;
74259;SDS011;62630;55.874;37.516;2023-03-23T05:35:10;6.70;;;3.42;;
74259;SDS011;62630;55.874;37.516;2023-03-23T05:37:37;6.55;;;3.22;;
74259;SDS011;62630;55.874;37.516;2023-03-23T05:40:04;6.45;;;3.97;;
74259;SDS011;62630;55.874;37.516;2023-03-23T05:42:34;10.88;;;4.22;;
74259;SDS011;62630;55.874;37.516;2023-03-23T05:45:03;8.68;;;4.22;;
74259;SDS011;62630;55.874;37.516;2023-03-23T05:47:30;6.18;;;3.90;;
74259;SDS011;62630;55.874;37.516;2023-03-23T05:49:59;8.55;;;3.97;;
74259;SDS011;62630;55.874;37.516;2023-03-23T05:52:25;10.52;;;4.32;;
74259;SDS011;62630;55.874;37.516;2023-03-23T05:54:52;14.90;;;4.03;;
74259;SDS011;62630;55.874;37.516;2023-03-23T05:57:18;9.00;;;4.25;;
74259;SDS011;62630;55.874;37.516;2023-03-23T05:59:46;7.18;;;4.25;;
74259;SDS011;62630;55.874;37.516;2023-03-23T06:02:12;7.22;;;3.67;;
74259;SDS011;62630;55.874;37.516;2023-03-23T06:04:39;8.38;;;4.32;;
74259;SDS011;62630;55.874;37.516;2023-03-23T06:07:06;7.88;;;4.47;;
74259;SDS011;62630;55.874;37.516;2023-03-23T06:09:33;6.50;;;4.30;;
74259;SDS011;62630;55.874;37.516;2023-03-23T06:12:01;13.77;;;4.72;;
74259;SDS011;62630;55.874;37.516;2023-03-23T06:14:26;6.85;;;4.70;;
74259;SDS011;62630;55.874;37.516;2023-03-23T06:16:52;7.47;;;4.63;;
74259;SDS011;62630;55.874;37.516;2023-03-23T06:19:18;10.52;;;4.70;;
74259;SDS011;62630;55.874;37.516;2023-03-23T06:21:43;10.05;;;4.15;;
74259;SDS011;62630;55.874;37.516;2023-03-23T06:24:09;8.77;;;5.13;;
74259;SDS011;62630;55.874;37.516;2023-03-23T06:26:36;10.15;;;5.18;;
74259;SDS011;62630;55.874;37.516;2023-03-23T06:29:03;7.03;;;4.07;;
74259;SDS011;62630;55.874;37.516;2023-03-23T06:31:49;8.63;;;3.97;;
74259;SDS011;62630;55.874;37.516;2023-03-23T06:34:19;7.43;;;4.13;;
74259;SDS011;62630;55.874;37.516;2023-03-23T06:36:45;8.13;;;4.10;;
74259;SDS011;62630;55.874;37.516;2023-03-23T06:39:11;7.63;;;4.05;;
74259;SDS011;62630;55.874;37.516;2023-03-23T06:41:39;12.63;;;4.60;;
74259;SDS011;62630;55.874;37.516;2023-03-23T06:44:05;9.73;;;4.43;;
74259;SDS011;62630;55.874;37.516;2023-03-23T06:46:31;10.57;;;4.65;;
74259;SDS011;62630;55.874;37.516;2023-03-23T06:49:03;8.32;;;4.57;;
74259;SDS011;62630;55.874;37.516;2023-03-23T06:51:36;10.68;;;4.43;;
74259;SDS011;62630;55.874;37.516;2023-03-23T06:54:02;17.98;;;4.53;;
74259;SDS011;62630;55.874;37.516;2023-03-23T06:56:28;10.13;;;4.35;;
74259;SDS011;62630;55.874;37.516;2023-03-23T06:58:55;8.05;;;4.80;;
74259;SDS011;62630;55.874;37.516;2023-03-23T07:01:21;8.23;;;4.25;;
74259;SDS011;62630;55.874;37.516;2023-03-23T07:03:47;9.18;;;5.00;;
74259;SDS011;62630;55.874;37.516;2023-03-23T07:06:14;10.88;;;5.00;;
74259;SDS011;62630;55.874;37.516;2023-03-23T07:08:40;10.40;;;4.82;;
74259;SDS011;62630;55.874;37.516;2023-03-23T07:11:17;7.53;;;4.57;;
74259;SDS011;62630;55.874;37.516;2023-03-23T07:13:43;11.50;;;4.25;;
74259;SDS011;62630;55.874;37.516;2023-03-23T07:16:08;8.43;;;4.70;;
74259;SDS011;62630;55.874;37.516;2023-03-23T07:18:35;7.53;;;4.93;;
74259;SDS011;62630;55.874;37.516;2023-03-23T07:21:01;7.38;;;5.07;;
74259;SDS011;62630;55.874;37.516;2023-03-23T07:23:28;8.75;;;5.07;;
74259;SDS011;62630;55.874;37.516;2023-03-23T07:25:55;10.02;;;4.47;;
74259;SDS011;62630;55.874;37.516;2023-03-23T07:28:22;6.75;;;4.55;;
74259;SDS011;62630;55.874;37.516;2023-03-23T07:30:48;12.43;;;4.72;;
74259;SDS011;62630;55.874;37.516;2023-03-23T07:33:13;7.10;;;4.18;;
74259;SDS011;62630;55.874;37.516;2023-03-23T07:35:40;8.75;;;4.65;;
74259;SDS011;62630;55.874;37.516;2023-03-23T07:38:06;7.03;;;4.78;;
74259;SDS011;62630;55.874;37.516;2023-03-23T07:40:32;7.55;;;4.63;;
74259;SDS011;62630;55.874;37.516;2023-03-23T07:42:58;9.35;;;4.38;;
74259;SDS011;62630;55.874;37.516;2023-03-23T07:45:28;8.50;;;4.35;;
74259;SDS011;62630;55.874;37.516;2023-03-23T07:47:55;11.88;;;4.57;;
74259;SDS011;62630;55.874;37.516;2023-03-23T07:50:20;9.73;;;4.35;;
74259;SDS011;62630;55.874;37.516;2023-03-23T07:52:49;10.07;;;4.30;;
74259;SDS011;62630;55.874;37.516;2023-03-23T07:55:14;6.22;;;3.97;;
74259;SDS011;62630;55.874;37.516;2023-03-23T07:57:46;9.10;;;4.30;;
74259;SDS011;62630;55.874;37.516;2023-03-23T08:00:16;7.55;;;4.80;;
74259;SDS011;62630;55.874;37.516;2023-03-23T08:02:49;12.25;;;4.47;;
74259;SDS011;62630;55.874;37.516;2023-03-23T08:05:22;6.93;;;4.22;;
74259;SDS011;62630;55.874;37.516;2023-03-23T08:07:51;6.80;;;4.50;;
74259;SDS011;62630;55.874;37.516;2023-03-23T08:10:19;6.63;;;4.10;;
74259;SDS011;62630;55.874;37.516;2023-03-23T08:12:50;7.13;;;4.35;;
74259;SDS011;62630;55.874;37.516;2023-03-23T08:15:17;8.25;;;4.40;;
74259;SDS011;62630;55.874;37.516;2023-03-23T08:17:44;8.50;;;4.57;;
74259;SDS011;62630;55.874;37.516;2023-03-23T08:20:11;12.45;;;4.22;;
74259;SDS011;62630;55.874;37.516;2023-03-23T08:22:38;8.32;;;4.32;;
74259;SDS011;62630;55.874;37.516;2023-03-23T08:25:06;9.80;;;4.93;;
74259;SDS011;62630;55.874;37.516;2023-03-23T08:27:33;16.13;;;5.05;;
74259;SDS011;62630;55.874;37.516;2023-03-23T08:29:59;6.70;;;4.03;;
74259;SDS011;62630;55.874;37.516;2023-03-23T08:32:25;10.27;;;3.90;;
74259;SDS011;62630;55.874;37.516;2023-03-23T08:34:51;7.38;;;4.45;;
74259;SDS011;62630;55.874;37.516;2023-03-23T08:37:17;9.20;;;4.30;;
74259;SDS011;62630;55.874;37.516;2023-03-23T08:39:43;9.30;;;4.75;;
74259;SDS011;62630;55.874;37.516;2023-03-23T08:42:09;7.78;;;4.05;;
74259;SDS011;62630;55.874;37.516;2023-03-23T08:44:35;15.60;;;4.70;;
74259;SDS011;62630;55.874;37.516;2023-03-23T08:47:02;5.68;;;4.00;;
74259;SDS011;62630;55.874;37.516;2023-03-23T08:49:30;5.20;;;3.67;;
74259;SDS011;62630;55.874;37.516;2023-03-23T08:51:59;12.30;;;4.25;;
74259;SDS011;62630;55.874;37.516;2023-03-23T08:54:24;7.28;;;4.65;;
74259;SDS011;62630;55.874;37.516;2023-03-23T08:56:50;10.60;;;3.95;;
74259;SDS011;62630;55.874;37.516;2023-03-23T08:59:16;5.55;;;4.80;;
74259;SDS011;62630;55.874;37.516;2023-03-23T09:01:42;9.45;;;4.35;;
74259;SDS011;62630;55.874;37.516;2023-03-23T09:04:08;7.22;;;4.13;;
74259;SDS011;62630;55.874;37.516;2023-03-23T09:06:35;5.88;;;4.03;;
74259;SDS011;62630;55.874;37.516;2023-03-23T09:09:02;9.70;;;4.28;;
74259;SDS011;62630;55.874;37.516;2023-03-23T09:11:32;7.10;;;3.72;;
74259;SDS011;62630;55.874;37.516;2023-03-23T09:13:58;8.52;;;4.18;;
74259;SDS011;62630;55.874;37.516;2023-03-23T09:16:24;7.22;;;4.15;;
74259;SDS011;62630;55.874;37.516;2023-03-23T09:18:50;6.07;;;4.05;;
74259;SDS011;62630;55.874;37.516;2023-03-23T09:21:15;7.70;;;4.43;;
74259;SDS011;62630;55.874;37.516;2023-03-23T09:23:45;6.57;;;4.18;;
74259;SDS011;62630;55.874;37.516;2023-03-23T09:26:11;13.57;;;4.50;;
74259;SDS011;62630;55.874;37.516;2023-03-23T09:28:37;6.22;;;3.65;;
74259;SDS011;62630;55.874;37.516;2023-03-23T09:31:02;6.00;;;4.43;;
74259;SDS011;62630;55.874;37.516;2023-03-23T09:33:31;5.28;;;4.15;;
74259;SDS011;62630;55.874;37.516;2023-03-23T09:36:02;10.88;;;4.32;;
74259;SDS011;62630;55.874;37.516;2023-03-23T09:38:30;9.48;;;4.13;;
74259;SDS011;62630;55.874;37.516;2023-03-23T09:41:07;10.52;;;5.80;;
74259;SDS011;62630;55.874;37.516;2023-03-23T09:52:19;10.50;;;4.40;;
74259;SDS011;62630;55.874;37.516;2023-03-23T10:00:03;6.60;;;4.15;;
74259;SDS011;62630;55.874;37.516;2023-03-23T10:05:34;6.95;;;4.18;;
74259;SDS011;62630;55.874;37.516;2023-03-23T10:08:03;9.77;;;3.95;;
74259;SDS011;62630;55.874;37.516;2023-03-23T10:10:42;6.00;;;4.07;;
74259;SDS011;62630;55.874;37.516;2023-03-23T10:13:31;6.15;;;3.83;;
74259;SDS011;62630;55.874;37.516;2023-03-23T10:16:17;7.45;;;3.97;;
74259;SDS011;62630;55.874;37.516;2023-03-23T10:21:42;7.55;;;3.35;;
74259;SDS011;62630;55.874;37.516;2023-03-23T10:24:16;6.22;;;3.33;;
74259;SDS011;62630;55.874;37.516;2023-03-23T10:29:28;9.23;;;3.50;;
74259;SDS011;62630;55.874;37.516;2023-03-23T10:32:13;6.82;;;3.20;;
74259;SDS011;62630;55.874;37.516;2023-03-23T10:34:58;6.40;;;3.47;;
74259;SDS011;62630;55.874;37.516;2023-03-23T10:37:30;4.47;;;3.22;;
74259;SDS011;62630;55.874;37.516;2023-03-23T10:42:34;5.00;;;3.08;;
74259;SDS011;62630;55.874;37.516;2023-03-23T10:45:12;5.35;;;2.75;;
74259;SDS011;62630;55.874;37.516;2023-03-23T10:48:07;8.07;;;2.90;;
74259;SDS011;62630;55.874;37.516;2023-03-23T10:50:34;5.13;;;2.85;;
74259;SDS011;62630;55.874;37.516;2023-03-23T10:53:03;4.55;;;2.90;;
74259;SDS011;62630;55.874;37.516;2023-03-23T10:55:40;4.63;;;2.75;;
74259;SDS011;62630;55.874;37.516;2023-03-23T10:58:09;3.90;;;2.83;;
74259;SDS011;62630;55.874;37.516;2023-03-23T11:00:48;7.57;;;2.83;;
74259;SDS011;62630;55.874;37.516;2023-03-23T11:05:42;4.20;;;2.70;;
74259;SDS011;62630;55.874;37.516;2023-03-23T11:08:16;4.55;;;2.60;;
74259;SDS011;62630;55.874;37.516;2023-03-23T11:10:51;4.10;;;2.80;;
74259;SDS011;62630;55.874;37.516;2023-03-23T11:16:43;5.97;;;2.47;;
74259;SDS011;62630;55.874;37.516;2023-03-23T11:19:15;8.45;;;3.30;;
74259;SDS011;62630;55.874;37.516;2023-03-23T11:21:58;6.47;;;2.80;;
74259;SDS011;62630;55.874;37.516;2023-03-23T11:24:43;6.57;;;2.85;;
74259;SDS011;62630;55.874;37.516;2023-03-23T11:27:11;6.35;;;2.97;;
74259;SDS011;62630;55.874;37.516;2023-03-23T11:29:48;6.03;;;2.60;;
74259;SDS011;62630;55.874;37.516;2023-03-23T11:32:22;3.80;;;2.95;;
74259;SDS011;62630;55.874;37.516;2023-03-23T11:35:03;5.25;;;2.65;;
74259;SDS011;62630;55.874;37.516;2023-03-23T11:37:35;5.90;;;2.60;;
74259;SDS011;62630;55.874;37.516;2023-03-23T11:42:38;6.63;;;3.03;;
74259;SDS011;62630;55.874;37.516;2023-03-23T11:50:59;4.82;;;2.75;;
74259;SDS011;62630;55.874;37.516;2023-03-23T11:56:36;6.03;;;2.83;;
74259;SDS011;62630;55.874;37.516;2023-03-23T11:59:05;3.42;;;2.30;;
74259;SDS011;62630;55.874;37.516;2023-03-23T12:01:47;8.60;;;3.00;;
74259;SDS011;62630;55.874;37.516;2023-03-23T12:04:28;3.40;;;2.47;;
74259;SDS011;62630;55.874;37.516;2023-03-23T12:15:45;7.78;;;3.58;;
74259;SDS011;62630;55.874;37.516;2023-03-23T12:18:28;5.68;;;2.15;;
74259;SDS011;62630;55.874;37.516;2023-03-23T12:41:46;3.35;;;2.70;;
74259;SDS011;62630;55.874;37.516;2023-03-23T12:50:00;4.03;;;2.33;;
74259;SDS011;62630;55.874;37.516;2023-03-23T12:52:40;6.80;;;2.88;;
74259;SDS011;62630;55.874;37.516;2023-03-23T12:55:18;4.80;;;2.38;;
74259;SDS011;62630;55.874;37.516;2023-03-23T13:10:33;4.75;;;2.22;;
74259;SDS011;62630;55.874;37.516;2023-03-23T13:13:05;6.10;;;2.55;;
74259;SDS011;62630;55.874;37.516;2023-03-23T13:21:30;5.30;;;2.70;;
74259;SDS011;62630;55.874;37.516;2023-03-23T13:24:01;3.72;;;2.25;;
74259;SDS011;62630;55.874;37.516;2023-03-23T13:26:30;4.57;;;2.65;;
74259;SDS011;62630;55.874;37.516;2023-03-23T13:29:06;4.53;;;2.78;;
74259;SDS011;62630;55.874;37.516;2023-03-23T13:31:44;2.97;;;2.05;;
74259;SDS011;62630;55.874;37.516;2023-03-23T13:40:23;4.63;;;2.38;;
74259;SDS011;62630;55.874;37.516;2023-03-23T13:42:49;8.88;;;2.53;;
74259;SDS011;62630;55.874;37.516;2023-03-23T13:47:47;8.98;;;2.80;;
74259;SDS011;62630;55.874;37.516;2023-03-23T13:52:58;6.47;;;2.60;;
74259;SDS011;62630;55.874;37.516;2023-03-23T13:55:42;3.85;;;2.40;;
74259;SDS011;62630;55.874;37.516;2023-03-23T13:58:21;7.63;;;2.60;;
74259;SDS011;62630;55.874;37.516;2023-03-23T14:01:00;6.20;;;2.63;;
74259;SDS011;62630;55.874;37.516;2023-03-23T14:03:38;5.38;;;2.63;;
74259;SDS011;62630;55.874;37.516;2023-03-23T14:06:07;4.40;;;2.53;;
74259;SDS011;62630;55.874;37.516;2023-03-23T14:08:42;8.38;;;3.15;;
74259;SDS011;62630;55.874;37.516;2023-03-23T14:11:15;4.10;;;2.72;;
74259;SDS011;62630;55.874;37.516;2023-03-23T14:14:05;7.28;;;2.85;;
74259;SDS011;62630;55.874;37.516;2023-03-23T14:16:38;3.90;;;2.45;;
74259;SDS011;62630;55.874;37.516;2023-03-23T14:21:52;3.72;;;2.58;;
74259;SDS011;62630;55.874;37.516;2023-03-23T14:27:14;6.60;;;2.70;;
74259;SDS011;62630;55.874;37.516;2023-03-23T14:29:41;3.40;;;2.55;;
74259;SDS011;62630;55.874;37.516;2023-03-23T14:32:10;4.60;;;2.33;;
74259;SDS011;62630;55.874;37.516;2023-03-23T14:34:42;4.20;;;2.53;;
74259;SDS011;62630;55.874;37.516;2023-03-23T14:37:12;4.05;;;2.97;;
74259;SDS011;62630;55.874;37.516;2023-03-23T14:39:40;5.57;;;2.58;;
74259;SDS011;62630;55.874;37.516;2023-03-23T14:42:12;6.32;;;2.72;;
74259;SDS011;62630;55.874;37.516;2023-03-23T14:44:48;4.18;;;2.60;;
74259;SDS011;62630;55.874;37.516;2023-03-23T14:47:37;4.88;;;2.75;;
74259;SDS011;62630;55.874;37.516;2023-03-23T14:50:04;5.40;;;2.65;;
74259;SDS011;62630;55.874;37.516;2023-03-23T14:52:36;6.05;;;2.50;;
74259;SDS011;62630;55.874;37.516;2023-03-23T14:55:22;5.68;;;3.10;;
74259;SDS011;62630;55.874;37.516;2023-03-23T14:57:49;5.40;;;2.80;;
74259;SDS011;62630;55.874;37.516;2023-03-23T15:00:16;5.95;;;2.28;;
74259;SDS011;62630;55.874;37.516;2023-03-23T15:02:49;3.67;;;2.30;;
74259;SDS011;62630;55.874;37.516;2023-03-23T15:05:26;4.40;;;2.97;;
74259;SDS011;62630;55.874;37.516;2023-03-23T15:07:58;4.55;;;2.47;;
74259;SDS011;62630;55.874;37.516;2023-03-23T15:10:28;5.43;;;3.13;;
74259;SDS011;62630;55.874;37.516;2023-03-23T15:12:54;8.48;;;3.30;;
74259;SDS011;62630;55.874;37.516;2023-03-23T15:15:30;10.50;;;3.15;;
74259;SDS011;62630;55.874;37.516;2023-03-23T15:17:58;6.95;;;2.67;;
74259;SDS011;62630;55.874;37.516;2023-03-23T15:23:17;8.57;;;2.72;;
74259;SDS011;62630;55.874;37.516;2023-03-23T15:25:54;5.07;;;3.17;;
74259;SDS011;62630;55.874;37.516;2023-03-23T15:28:30;7.30;;;2.83;;
74259;SDS011;62630;55.874;37.516;2023-03-23T15:31:00;6.97;;;3.00;;
74259;SDS011;62630;55.874;37.516;2023-03-23T15:33:38;4.43;;;2.97;;
74259;SDS011;62630;55.874;37.516;2023-03-23T15:36:09;4.63;;;2.63;;
74259;SDS011;62630;55.874;37.516;2023-03-23T15:38:43;6.55;;;2.70;;
74259;SDS011;62630;55.874;37.516;2023-03-23T15:41:21;11.77;;;3.13;;
74259;SDS011;62630;55.874;37.516;2023-03-23T15:43:51;4.93;;;3.00;;
74259;SDS011;62630;55.874;37.516;2023-03-23T15:46:23;6.45;;;2.90;;
74259;SDS011;62630;55.874;37.516;2023-03-23T15:51:24;4.60;;;2.67;;
74259;SDS011;62630;55.874;37.516;2023-03-23T15:53:52;4.53;;;2.85;;
74259;SDS011;62630;55.874;37.516;2023-03-23T15:56:19;5.40;;;2.92;;
74259;SDS011;62630;55.874;37.516;2023-03-23T15:58:45;4.53;;;2.67;;
74259;SDS011;62630;55.874;37.516;2023-03-23T16:01:12;6.72;;;2.60;;
74259;SDS011;62630;55.874;37.516;2023-03-23T16:03:42;4.30;;;2.90;;
74259;SDS011;62630;55.874;37.516;2023-03-23T16:06:12;7.25;;;3.00;;
74259;SDS011;62630;55.874;37.516;2023-03-23T16:08:40;5.82;;;2.60;;
74259;SDS011;62630;55.874;37.516;2023-03-23T16:11:08;5.10;;;2.88;;
74259;SDS011;62630;55.874;37.516;2023-03-23T16:13:35;4.22;;;3.00;;
74259;SDS011;62630;55.874;37.516;2023-03-23T16:16:01;7.40;;;3.03;;
74259;SDS011;62630;55.874;37.516;2023-03-23T16:18:29;4.15;;;2.83;;
74259;SDS011;62630;55.874;37.516;2023-03-23T16:20:55;7.13;;;3.08;;
74259;SDS011;62630;55.874;37.516;2023-03-23T16:23:22;8.23;;;3.53;;
74259;SDS011;62630;55.874;37.516;2023-03-23T16:25:48;4.68;;;3.20;;
74259;SDS011;62630;55.874;37.516;2023-03-23T16:28:14;6.68;;;2.92;;
74259;SDS011;62630;55.874;37.516;2023-03-23T16:30:41;11.77;;;2.90;;
74259;SDS011;62630;55.874;37.516;2023-03-23T16:33:07;4.25;;;2.72;;
74259;SDS011;62630;55.874;37.516;2023-03-23T16:35:34;7.10;;;2.95;;
74259;SDS011;62630;55.874;37.516;2023-03-23T16:38:01;5.50;;;3.20;;
74259;SDS011;62630;55.874;37.516;2023-03-23T16:40:27;8.23;;;3.30;;
74259;SDS011;62630;55.874;37.516;2023-03-23T16:42:53;5.22;;;3.05;;
74259;SDS011;62630;55.874;37.516;2023-03-23T16:45:19;5.82;;;2.85;;
74259;SDS011;62630;55.874;37.516;2023-03-23T16:47:48;6.47;;;3.00;;
74259;SDS011;62630;55.874;37.516;2023-03-23T16:50:15;6.25;;;3.45;;
74259;SDS011;62630;55.874;37.516;2023-03-23T16:52:43;7.57;;;2.90;;
74259;SDS011;62630;55.874;37.516;2023-03-23T16:55:11;6.95;;;3.47;;
74259;SDS011;62630;55.874;37.516;2023-03-23T16:57:39;6.53;;;3.05;;
74259;SDS011;62630;55.874;37.516;2023-03-23T17:00:07;6.88;;;3.22;;
74259;SDS011;62630;55.874;37.516;2023-03-23T17:02:47;5.22;;;3.40;;
74259;SDS011;62630;55.874;37.516;2023-03-23T17:05:16;6.75;;;3.03;;
74259;SDS011;62630;55.874;37.516;2023-03-23T17:07:44;5.13;;;3.20;;
74259;SDS011;62630;55.874;37.516;2023-03-23T17:10:13;6.88;;;3.47;;
74259;SDS011;62630;55.874;37.516;2023-03-23T17:12:41;7.28;;;2.95;;
74259;SDS011;62630;55.874;37.516;2023-03-23T17:15:09;7.68;;;2.90;;
74259;SDS011;62630;55.874;37.516;2023-03-23T17:17:36;5.00;;;3.28;;